sensor_id;sensor_type;location;lat;lon;timestamp;P1;durP1;ratioP1;P2;durP2;ratioP2
39846;SDS011;25517;52.422;10.782;2024-01-30T00:00:46;14.60;;;8.93;;
39846;SDS011;25517;52.422;10.782;2024-01-30T00:03:11;16.55;;;9.32;;
39846;SDS011;25517;52.422;10.782;2024-01-30T00:05:37;20.38;;;8.85;;
39846;SDS011;25517;52.422;10.782;2024-01-30T00:08:02;21.92;;;9.98;;
39846;SDS011;25517;52.422;10.782;2024-01-30T00:10:28;16.55;;;8.88;;
39846;SDS011;25517;52.422;10.782;2024-01-30T00:12:54;14.52;;;8.60;;
39846;SDS011;25517;52.422;10.782;2024-01-30T00:15:19;12.07;;;8.23;;
39846;SDS011;25517;52.422;10.782;2024-01-30T00:17:45;14.45;;;9.25;;
39846;SDS011;25517;52.422;10.782;2024-01-30T00:20:10;12.23;;;8.15;;
39846;SDS011;25517;52.422;10.782;2024-01-30T00:22:36;13.07;;;8.63;;
39846;SDS011;25517;52.422;10.782;2024-01-30T00:25:01;15.60;;;9.52;;
39846;SDS011;25517;52.422;10.782;2024-01-30T00:27:27;14.07;;;8.65;;
39846;SDS011;25517;52.422;10.782;2024-01-30T00:29:53;14.35;;;7.88;;
39846;SDS011;25517;52.422;10.782;2024-01-30T00:32:19;12.55;;;8.10;;
39846;SDS011;25517;52.422;10.782;2024-01-30T00:34:45;12.73;;;7.53;;
39846;SDS011;25517;52.422;10.782;2024-01-30T00:37:10;15.05;;;7.93;;
39846;SDS011;25517;52.422;10.782;2024-01-30T00:39:36;16.08;;;8.68;;
39846;SDS011;25517;52.422;10.782;2024-01-30T00:42:02;10.68;;;6.57;;
39846;SDS011;25517;52.422;10.782;2024-01-30T00:44:27;9.50;;;6.97;;
39846;SDS011;25517;52.422;10.782;2024-01-30T00:46:53;11.18;;;6.82;;
39846;SDS011;25517;52.422;10.782;2024-01-30T00:49:19;11.88;;;7.68;;
39846;SDS011;25517;52.422;10.782;2024-01-30T00:51:44;11.48;;;7.55;;
39846;SDS011;25517;52.422;10.782;2024-01-30T00:54:11;11.75;;;7.40;;
39846;SDS011;25517;52.422;10.782;2024-01-30T00:56:37;10.07;;;6.95;;
39846;SDS011;25517;52.422;10.782;2024-01-30T00:59:02;12.43;;;7.93;;
39846;SDS011;25517;52.422;10.782;2024-01-30T01:01:28;11.68;;;7.45;;
39846;SDS011;25517;52.422;10.782;2024-01-30T01:03:54;11.50;;;7.32;;
39846;SDS011;25517;52.422;10.782;2024-01-30T01:06:19;14.10;;;8.23;;
39846;SDS011;25517;52.422;10.782;2024-01-30T01:08:45;12.43;;;7.72;;
39846;SDS011;25517;52.422;10.782;2024-01-30T01:11:10;10.07;;;7.00;;
39846;SDS011;25517;52.422;10.782;2024-01-30T01:13:36;11.23;;;7.30;;
39846;SDS011;25517;52.422;10.782;2024-01-30T01:16:01;11.13;;;7.63;;
39846;SDS011;25517;52.422;10.782;2024-01-30T01:18:27;12.95;;;6.85;;
39846;SDS011;25517;52.422;10.782;2024-01-30T01:20:52;10.05;;;7.10;;
39846;SDS011;25517;52.422;10.782;2024-01-30T01:23:18;12.35;;;7.82;;
39846;SDS011;25517;52.422;10.782;2024-01-30T01:25:44;11.60;;;6.90;;
39846;SDS011;25517;52.422;10.782;2024-01-30T01:28:09;12.55;;;8.27;;
39846;SDS011;25517;52.422;10.782;2024-01-30T01:30:35;14.43;;;8.43;;
39846;SDS011;25517;52.422;10.782;2024-01-30T01:33:00;14.63;;;8.45;;
39846;SDS011;25517;52.422;10.782;2024-01-30T01:35:27;18.33;;;9.27;;
39846;SDS011;25517;52.422;10.782;2024-01-30T01:37:53;14.82;;;8.45;;
39846;SDS011;25517;52.422;10.782;2024-01-30T01:40:24;13.55;;;8.32;;
39846;SDS011;25517;52.422;10.782;2024-01-30T01:42:51;13.93;;;9.70;;
39846;SDS011;25517;52.422;10.782;2024-01-30T01:45:17;15.85;;;9.63;;
39846;SDS011;25517;52.422;10.782;2024-01-30T01:47:43;17.75;;;9.15;;
39846;SDS011;25517;52.422;10.782;2024-01-30T01:50:11;16.15;;;9.65;;
39846;SDS011;25517;52.422;10.782;2024-01-30T01:52:38;15.65;;;9.40;;
39846;SDS011;25517;52.422;10.782;2024-01-30T01:55:06;17.80;;;9.05;;
39846;SDS011;25517;52.422;10.782;2024-01-30T01:57:33;17.90;;;9.30;;
39846;SDS011;25517;52.422;10.782;2024-01-30T01:59:59;15.50;;;9.02;;
39846;SDS011;25517;52.422;10.782;2024-01-30T02:02:26;17.33;;;9.63;;
39846;SDS011;25517;52.422;10.782;2024-01-30T02:04:55;21.55;;;10.18;;
39846;SDS011;25517;52.422;10.782;2024-01-30T02:07:22;13.95;;;8.65;;
39846;SDS011;25517;52.422;10.782;2024-01-30T02:09:47;15.25;;;10.43;;
39846;SDS011;25517;52.422;10.782;2024-01-30T02:12:13;14.27;;;9.10;;
39846;SDS011;25517;52.422;10.782;2024-01-30T02:14:45;14.27;;;8.93;;
39846;SDS011;25517;52.422;10.782;2024-01-30T02:17:11;15.90;;;9.25;;
39846;SDS011;25517;52.422;10.782;2024-01-30T02:19:37;16.58;;;9.05;;
39846;SDS011;25517;52.422;10.782;2024-01-30T02:22:02;13.10;;;9.32;;
39846;SDS011;25517;52.422;10.782;2024-01-30T02:24:29;15.52;;;9.48;;
39846;SDS011;25517;52.422;10.782;2024-01-30T02:26:54;14.98;;;8.93;;
39846;SDS011;25517;52.422;10.782;2024-01-30T02:29:20;11.95;;;8.73;;
39846;SDS011;25517;52.422;10.782;2024-01-30T02:31:47;13.40;;;8.88;;
39846;SDS011;25517;52.422;10.782;2024-01-30T02:34:13;13.55;;;7.95;;
39846;SDS011;25517;52.422;10.782;2024-01-30T02:36:38;15.00;;;9.20;;
39846;SDS011;25517;52.422;10.782;2024-01-30T02:39:07;13.88;;;8.43;;
39846;SDS011;25517;52.422;10.782;2024-01-30T02:41:33;15.13;;;8.98;;
39846;SDS011;25517;52.422;10.782;2024-01-30T02:43:58;16.25;;;9.43;;
39846;SDS011;25517;52.422;10.782;2024-01-30T02:46:24;14.70;;;8.75;;
39846;SDS011;25517;52.422;10.782;2024-01-30T02:48:50;17.27;;;10.52;;
39846;SDS011;25517;52.422;10.782;2024-01-30T02:51:15;14.80;;;10.00;;
39846;SDS011;25517;52.422;10.782;2024-01-30T02:53:41;15.93;;;9.32;;
39846;SDS011;25517;52.422;10.782;2024-01-30T02:56:07;16.63;;;9.32;;
39846;SDS011;25517;52.422;10.782;2024-01-30T02:58:35;14.30;;;8.88;;
39846;SDS011;25517;52.422;10.782;2024-01-30T03:01:01;13.88;;;8.48;;
39846;SDS011;25517;52.422;10.782;2024-01-30T03:03:27;13.95;;;8.48;;
39846;SDS011;25517;52.422;10.782;2024-01-30T03:05:52;19.23;;;10.27;;
39846;SDS011;25517;52.422;10.782;2024-01-30T03:08:18;17.15;;;10.35;;
39846;SDS011;25517;52.422;10.782;2024-01-30T03:10:43;14.57;;;9.00;;
39846;SDS011;25517;52.422;10.782;2024-01-30T03:13:09;14.45;;;8.93;;
39846;SDS011;25517;52.422;10.782;2024-01-30T03:15:34;13.35;;;8.27;;
39846;SDS011;25517;52.422;10.782;2024-01-30T03:18:00;14.70;;;9.48;;
39846;SDS011;25517;52.422;10.782;2024-01-30T03:20:26;15.63;;;9.35;;
39846;SDS011;25517;52.422;10.782;2024-01-30T03:22:53;15.23;;;9.35;;
39846;SDS011;25517;52.422;10.782;2024-01-30T03:25:19;13.70;;;8.85;;
39846;SDS011;25517;52.422;10.782;2024-01-30T03:27:45;13.50;;;9.40;;
39846;SDS011;25517;52.422;10.782;2024-01-30T03:30:11;15.80;;;8.93;;
39846;SDS011;25517;52.422;10.782;2024-01-30T03:32:36;15.40;;;9.48;;
39846;SDS011;25517;52.422;10.782;2024-01-30T03:35:02;12.95;;;8.73;;
39846;SDS011;25517;52.422;10.782;2024-01-30T03:37:28;16.08;;;10.23;;
39846;SDS011;25517;52.422;10.782;2024-01-30T03:39:53;18.48;;;10.65;;
39846;SDS011;25517;52.422;10.782;2024-01-30T03:42:19;18.30;;;11.50;;
39846;SDS011;25517;52.422;10.782;2024-01-30T03:44:44;21.88;;;12.18;;
39846;SDS011;25517;52.422;10.782;2024-01-30T03:47:10;16.25;;;10.93;;
39846;SDS011;25517;52.422;10.782;2024-01-30T03:49:35;19.30;;;10.95;;
39846;SDS011;25517;52.422;10.782;2024-01-30T03:52:01;18.85;;;11.20;;
39846;SDS011;25517;52.422;10.782;2024-01-30T03:54:26;20.15;;;11.48;;
39846;SDS011;25517;52.422;10.782;2024-01-30T03:56:52;18.70;;;10.80;;
39846;SDS011;25517;52.422;10.782;2024-01-30T03:59:17;16.90;;;11.30;;
39846;SDS011;25517;52.422;10.782;2024-01-30T04:01:48;22.17;;;12.23;;
39846;SDS011;25517;52.422;10.782;2024-01-30T04:04:13;15.80;;;9.57;;
39846;SDS011;25517;52.422;10.782;2024-01-30T04:06:39;17.65;;;10.40;;
39846;SDS011;25517;52.422;10.782;2024-01-30T04:09:04;17.05;;;10.68;;
39846;SDS011;25517;52.422;10.782;2024-01-30T04:11:30;20.33;;;11.80;;
39846;SDS011;25517;52.422;10.782;2024-01-30T04:13:55;23.30;;;11.30;;
39846;SDS011;25517;52.422;10.782;2024-01-30T04:16:21;16.95;;;10.30;;
39846;SDS011;25517;52.422;10.782;2024-01-30T04:18:47;20.13;;;10.50;;
39846;SDS011;25517;52.422;10.782;2024-01-30T04:21:14;18.55;;;9.48;;
39846;SDS011;25517;52.422;10.782;2024-01-30T04:23:42;17.50;;;10.70;;
39846;SDS011;25517;52.422;10.782;2024-01-30T04:26:08;15.43;;;8.82;;
39846;SDS011;25517;52.422;10.782;2024-01-30T04:28:33;19.60;;;10.70;;
39846;SDS011;25517;52.422;10.782;2024-01-30T04:30:59;15.43;;;9.20;;
39846;SDS011;25517;52.422;10.782;2024-01-30T04:33:24;17.20;;;9.80;;
39846;SDS011;25517;52.422;10.782;2024-01-30T04:35:50;13.60;;;8.70;;
39846;SDS011;25517;52.422;10.782;2024-01-30T04:38:16;15.27;;;10.27;;
39846;SDS011;25517;52.422;10.782;2024-01-30T04:40:42;15.15;;;8.82;;
39846;SDS011;25517;52.422;10.782;2024-01-30T04:43:08;22.58;;;9.65;;
39846;SDS011;25517;52.422;10.782;2024-01-30T04:45:33;14.57;;;8.77;;
39846;SDS011;25517;52.422;10.782;2024-01-30T04:47:59;15.35;;;8.38;;
39846;SDS011;25517;52.422;10.782;2024-01-30T04:50:25;16.80;;;8.73;;
39846;SDS011;25517;52.422;10.782;2024-01-30T04:52:51;15.90;;;8.75;;
39846;SDS011;25517;52.422;10.782;2024-01-30T04:55:17;13.10;;;8.20;;
39846;SDS011;25517;52.422;10.782;2024-01-30T04:57:43;16.45;;;8.70;;
39846;SDS011;25517;52.422;10.782;2024-01-30T05:00:08;16.17;;;8.68;;
39846;SDS011;25517;52.422;10.782;2024-01-30T05:02:34;12.00;;;7.95;;
39846;SDS011;25517;52.422;10.782;2024-01-30T05:05:00;19.50;;;8.90;;
39846;SDS011;25517;52.422;10.782;2024-01-30T05:07:26;12.38;;;8.75;;
39846;SDS011;25517;52.422;10.782;2024-01-30T05:09:51;16.17;;;9.65;;
39846;SDS011;25517;52.422;10.782;2024-01-30T05:12:17;17.20;;;8.88;;
39846;SDS011;25517;52.422;10.782;2024-01-30T05:14:43;13.32;;;8.35;;
39846;SDS011;25517;52.422;10.782;2024-01-30T05:17:09;13.85;;;9.05;;
39846;SDS011;25517;52.422;10.782;2024-01-30T05:19:37;15.38;;;8.98;;
39846;SDS011;25517;52.422;10.782;2024-01-30T05:22:03;16.75;;;9.00;;
39846;SDS011;25517;52.422;10.782;2024-01-30T05:24:29;18.00;;;9.27;;
39846;SDS011;25517;52.422;10.782;2024-01-30T05:26:54;13.35;;;8.40;;
39846;SDS011;25517;52.422;10.782;2024-01-30T05:29:20;19.02;;;10.18;;
39846;SDS011;25517;52.422;10.782;2024-01-30T05:31:45;14.25;;;9.02;;
39846;SDS011;25517;52.422;10.782;2024-01-30T05:34:11;14.77;;;9.38;;
39846;SDS011;25517;52.422;10.782;2024-01-30T05:36:36;14.77;;;8.65;;
39846;SDS011;25517;52.422;10.782;2024-01-30T05:39:02;15.27;;;9.55;;
39846;SDS011;25517;52.422;10.782;2024-01-30T05:41:29;21.38;;;9.27;;
39846;SDS011;25517;52.422;10.782;2024-01-30T05:43:54;17.83;;;10.02;;
39846;SDS011;25517;52.422;10.782;2024-01-30T05:46:20;14.63;;;8.30;;
39846;SDS011;25517;52.422;10.782;2024-01-30T05:48:45;17.10;;;8.77;;
39846;SDS011;25517;52.422;10.782;2024-01-30T05:51:11;12.60;;;8.70;;
39846;SDS011;25517;52.422;10.782;2024-01-30T05:53:36;15.63;;;9.45;;
39846;SDS011;25517;52.422;10.782;2024-01-30T05:56:03;14.77;;;9.20;;
39846;SDS011;25517;52.422;10.782;2024-01-30T05:58:29;14.30;;;8.75;;
39846;SDS011;25517;52.422;10.782;2024-01-30T06:00:56;14.93;;;9.48;;
39846;SDS011;25517;52.422;10.782;2024-01-30T06:03:22;13.07;;;8.25;;
39846;SDS011;25517;52.422;10.782;2024-01-30T06:05:47;25.35;;;9.25;;
39846;SDS011;25517;52.422;10.782;2024-01-30T06:08:13;14.75;;;8.75;;
39846;SDS011;25517;52.422;10.782;2024-01-30T06:10:38;12.75;;;8.50;;
39846;SDS011;25517;52.422;10.782;2024-01-30T06:13:04;18.55;;;9.20;;
39846;SDS011;25517;52.422;10.782;2024-01-30T06:15:29;15.38;;;9.25;;
39846;SDS011;25517;52.422;10.782;2024-01-30T06:17:55;17.42;;;8.50;;
39846;SDS011;25517;52.422;10.782;2024-01-30T06:20:21;13.45;;;8.95;;
39846;SDS011;25517;52.422;10.782;2024-01-30T06:22:46;17.15;;;8.70;;
39846;SDS011;25517;52.422;10.782;2024-01-30T06:25:12;16.45;;;8.60;;
39846;SDS011;25517;52.422;10.782;2024-01-30T06:27:37;14.82;;;8.85;;
39846;SDS011;25517;52.422;10.782;2024-01-30T06:30:06;14.85;;;8.30;;
39846;SDS011;25517;52.422;10.782;2024-01-30T06:32:32;16.02;;;10.63;;
39846;SDS011;25517;52.422;10.782;2024-01-30T06:34:59;17.00;;;10.80;;
39846;SDS011;25517;52.422;10.782;2024-01-30T06:37:25;15.93;;;8.75;;
39846;SDS011;25517;52.422;10.782;2024-01-30T06:39:51;14.68;;;8.95;;
39846;SDS011;25517;52.422;10.782;2024-01-30T06:42:17;21.55;;;10.15;;
39846;SDS011;25517;52.422;10.782;2024-01-30T06:44:43;16.60;;;9.43;;
39846;SDS011;25517;52.422;10.782;2024-01-30T06:47:09;15.50;;;9.27;;
39846;SDS011;25517;52.422;10.782;2024-01-30T06:49:35;15.98;;;10.40;;
39846;SDS011;25517;52.422;10.782;2024-01-30T06:52:03;17.88;;;9.25;;
39846;SDS011;25517;52.422;10.782;2024-01-30T06:54:31;13.95;;;8.93;;
39846;SDS011;25517;52.422;10.782;2024-01-30T06:56:58;22.70;;;9.95;;
39846;SDS011;25517;52.422;10.782;2024-01-30T06:59:24;15.25;;;9.18;;
39846;SDS011;25517;52.422;10.782;2024-01-30T07:01:49;14.55;;;8.90;;
39846;SDS011;25517;52.422;10.782;2024-01-30T07:04:15;16.52;;;9.40;;
39846;SDS011;25517;52.422;10.782;2024-01-30T07:06:41;11.13;;;7.90;;
39846;SDS011;25517;52.422;10.782;2024-01-30T07:09:06;13.10;;;8.70;;
39846;SDS011;25517;52.422;10.782;2024-01-30T07:11:33;14.15;;;8.63;;
39846;SDS011;25517;52.422;10.782;2024-01-30T07:13:59;14.80;;;9.52;;
39846;SDS011;25517;52.422;10.782;2024-01-30T07:16:24;13.38;;;8.38;;
39846;SDS011;25517;52.422;10.782;2024-01-30T07:18:50;16.45;;;9.70;;
39846;SDS011;25517;52.422;10.782;2024-01-30T07:21:16;18.30;;;10.70;;
39846;SDS011;25517;52.422;10.782;2024-01-30T07:23:42;19.80;;;11.02;;
39846;SDS011;25517;52.422;10.782;2024-01-30T07:26:08;17.20;;;9.32;;
39846;SDS011;25517;52.422;10.782;2024-01-30T07:28:34;13.50;;;9.45;;
39846;SDS011;25517;52.422;10.782;2024-01-30T07:31:00;15.55;;;9.00;;
39846;SDS011;25517;52.422;10.782;2024-01-30T07:33:26;13.98;;;8.85;;
39846;SDS011;25517;52.422;10.782;2024-01-30T07:35:52;15.25;;;9.57;;
39846;SDS011;25517;52.422;10.782;2024-01-30T07:38:18;14.98;;;9.40;;
39846;SDS011;25517;52.422;10.782;2024-01-30T07:40:44;17.52;;;9.50;;
39846;SDS011;25517;52.422;10.782;2024-01-30T07:43:10;14.88;;;9.40;;
39846;SDS011;25517;52.422;10.782;2024-01-30T07:45:35;15.15;;;9.23;;
39846;SDS011;25517;52.422;10.782;2024-01-30T07:48:02;19.83;;;9.18;;
39846;SDS011;25517;52.422;10.782;2024-01-30T07:50:28;16.83;;;9.38;;
39846;SDS011;25517;52.422;10.782;2024-01-30T07:52:55;22.33;;;12.13;;
39846;SDS011;25517;52.422;10.782;2024-01-30T07:55:21;15.73;;;9.23;;
39846;SDS011;25517;52.422;10.782;2024-01-30T07:57:53;15.70;;;9.90;;
39846;SDS011;25517;52.422;10.782;2024-01-30T08:00:22;12.93;;;8.63;;
39846;SDS011;25517;52.422;10.782;2024-01-30T08:02:48;16.13;;;9.73;;
39846;SDS011;25517;52.422;10.782;2024-01-30T08:05:13;18.00;;;8.98;;
39846;SDS011;25517;52.422;10.782;2024-01-30T08:07:40;16.77;;;8.68;;
39846;SDS011;25517;52.422;10.782;2024-01-30T08:10:07;12.82;;;9.07;;
39846;SDS011;25517;52.422;10.782;2024-01-30T08:12:33;19.50;;;9.55;;
39846;SDS011;25517;52.422;10.782;2024-01-30T08:14:59;14.15;;;7.90;;
39846;SDS011;25517;52.422;10.782;2024-01-30T08:17:24;13.60;;;8.95;;
39846;SDS011;25517;52.422;10.782;2024-01-30T08:19:50;20.23;;;9.30;;
39846;SDS011;25517;52.422;10.782;2024-01-30T08:22:15;16.20;;;8.80;;
39846;SDS011;25517;52.422;10.782;2024-01-30T08:24:41;17.73;;;9.27;;
39846;SDS011;25517;52.422;10.782;2024-01-30T08:27:07;12.82;;;9.05;;
39846;SDS011;25517;52.422;10.782;2024-01-30T08:29:35;20.38;;;9.35;;
39846;SDS011;25517;52.422;10.782;2024-01-30T08:32:00;14.27;;;9.13;;
39846;SDS011;25517;52.422;10.782;2024-01-30T08:34:26;19.95;;;9.25;;
39846;SDS011;25517;52.422;10.782;2024-01-30T08:36:52;16.08;;;8.38;;
39846;SDS011;25517;52.422;10.782;2024-01-30T08:39:18;13.18;;;8.73;;
39846;SDS011;25517;52.422;10.782;2024-01-30T08:41:44;14.10;;;9.13;;
39846;SDS011;25517;52.422;10.782;2024-01-30T08:44:09;11.18;;;7.40;;
39846;SDS011;25517;52.422;10.782;2024-01-30T08:46:36;15.50;;;8.85;;
39846;SDS011;25517;52.422;10.782;2024-01-30T08:49:01;11.60;;;7.35;;
39846;SDS011;25517;52.422;10.782;2024-01-30T08:51:29;17.63;;;8.20;;
39846;SDS011;25517;52.422;10.782;2024-01-30T08:53:54;10.27;;;7.43;;
39846;SDS011;25517;52.422;10.782;2024-01-30T08:56:20;11.63;;;7.43;;
39846;SDS011;25517;52.422;10.782;2024-01-30T08:58:46;12.13;;;7.70;;
39846;SDS011;25517;52.422;10.782;2024-01-30T09:01:11;11.57;;;7.10;;
39846;SDS011;25517;52.422;10.782;2024-01-30T09:03:37;16.45;;;8.75;;
39846;SDS011;25517;52.422;10.782;2024-01-30T09:06:08;13.02;;;8.25;;
39846;SDS011;25517;52.422;10.782;2024-01-30T09:08:33;12.70;;;7.95;;
39846;SDS011;25517;52.422;10.782;2024-01-30T09:10:59;16.70;;;8.23;;
39846;SDS011;25517;52.422;10.782;2024-01-30T09:13:25;14.65;;;7.53;;
39846;SDS011;25517;52.422;10.782;2024-01-30T09:15:50;13.40;;;8.05;;
39846;SDS011;25517;52.422;10.782;2024-01-30T09:18:16;13.02;;;7.93;;
39846;SDS011;25517;52.422;10.782;2024-01-30T09:20:41;11.45;;;7.85;;
39846;SDS011;25517;52.422;10.782;2024-01-30T09:23:07;11.57;;;7.63;;
39846;SDS011;25517;52.422;10.782;2024-01-30T09:25:33;16.20;;;8.75;;
39846;SDS011;25517;52.422;10.782;2024-01-30T09:27:59;13.13;;;7.43;;
39846;SDS011;25517;52.422;10.782;2024-01-30T09:30:24;12.80;;;8.40;;
39846;SDS011;25517;52.422;10.782;2024-01-30T09:32:50;12.73;;;7.78;;
39846;SDS011;25517;52.422;10.782;2024-01-30T09:35:16;14.68;;;7.35;;
39846;SDS011;25517;52.422;10.782;2024-01-30T09:37:41;12.27;;;8.02;;
39846;SDS011;25517;52.422;10.782;2024-01-30T09:40:07;15.57;;;8.48;;
39846;SDS011;25517;52.422;10.782;2024-01-30T09:42:34;14.15;;;8.20;;
39846;SDS011;25517;52.422;10.782;2024-01-30T09:45:03;13.55;;;8.02;;
39846;SDS011;25517;52.422;10.782;2024-01-30T09:47:47;13.95;;;8.13;;
39846;SDS011;25517;52.422;10.782;2024-01-30T09:50:13;11.35;;;7.45;;
39846;SDS011;25517;52.422;10.782;2024-01-30T09:52:40;11.02;;;7.22;;
39846;SDS011;25517;52.422;10.782;2024-01-30T09:55:06;17.27;;;7.75;;
39846;SDS011;25517;52.422;10.782;2024-01-30T09:57:32;12.68;;;7.60;;
39846;SDS011;25517;52.422;10.782;2024-01-30T09:59:59;15.18;;;7.30;;
39846;SDS011;25517;52.422;10.782;2024-01-30T10:02:24;14.77;;;7.20;;
39846;SDS011;25517;52.422;10.782;2024-01-30T10:04:51;15.45;;;7.18;;
39846;SDS011;25517;52.422;10.782;2024-01-30T10:07:17;16.40;;;7.88;;
39846;SDS011;25517;52.422;10.782;2024-01-30T10:09:43;10.27;;;6.82;;
39846;SDS011;25517;52.422;10.782;2024-01-30T10:12:09;11.57;;;7.55;;
39846;SDS011;25517;52.422;10.782;2024-01-30T10:14:39;12.77;;;6.22;;
39846;SDS011;25517;52.422;10.782;2024-01-30T10:17:05;14.88;;;7.22;;
39846;SDS011;25517;52.422;10.782;2024-01-30T10:19:31;11.18;;;7.63;;
39846;SDS011;25517;52.422;10.782;2024-01-30T10:21:57;10.95;;;7.22;;
39846;SDS011;25517;52.422;10.782;2024-01-30T10:24:25;10.05;;;6.75;;
39846;SDS011;25517;52.422;10.782;2024-01-30T10:26:51;12.02;;;7.60;;
39846;SDS011;25517;52.422;10.782;2024-01-30T10:29:18;13.38;;;6.50;;
39846;SDS011;25517;52.422;10.782;2024-01-30T10:31:43;10.20;;;6.50;;
39846;SDS011;25517;52.422;10.782;2024-01-30T10:34:09;9.85;;;5.65;;
39846;SDS011;25517;52.422;10.782;2024-01-30T10:36:37;12.35;;;6.68;;
39846;SDS011;25517;52.422;10.782;2024-01-30T10:39:08;10.27;;;6.47;;
39846;SDS011;25517;52.422;10.782;2024-01-30T10:41:37;13.95;;;7.30;;
39846;SDS011;25517;52.422;10.782;2024-01-30T10:44:09;8.55;;;6.35;;
39846;SDS011;25517;52.422;10.782;2024-01-30T10:46:35;11.32;;;6.95;;
39846;SDS011;25517;52.422;10.782;2024-01-30T10:49:03;10.27;;;6.20;;
39846;SDS011;25517;52.422;10.782;2024-01-30T10:51:30;8.38;;;6.60;;
39846;SDS011;25517;52.422;10.782;2024-01-30T10:53:57;12.77;;;7.30;;
39846;SDS011;25517;52.422;10.782;2024-01-30T10:56:23;8.02;;;6.20;;
39846;SDS011;25517;52.422;10.782;2024-01-30T10:58:50;9.15;;;7.10;;
39846;SDS011;25517;52.422;10.782;2024-01-30T11:03:48;9.85;;;5.72;;
39846;SDS011;25517;52.422;10.782;2024-01-30T11:06:17;14.48;;;6.93;;
39846;SDS011;25517;52.422;10.782;2024-01-30T11:08:46;8.75;;;5.85;;
39846;SDS011;25517;52.422;10.782;2024-01-30T11:11:24;10.65;;;6.50;;
39846;SDS011;25517;52.422;10.782;2024-01-30T11:13:50;11.50;;;6.88;;
39846;SDS011;25517;52.422;10.782;2024-01-30T11:16:15;13.20;;;7.78;;
39846;SDS011;25517;52.422;10.782;2024-01-30T11:18:41;12.52;;;7.63;;
39846;SDS011;25517;52.422;10.782;2024-01-30T11:21:06;10.07;;;7.03;;
39846;SDS011;25517;52.422;10.782;2024-01-30T11:23:33;10.10;;;6.53;;
39846;SDS011;25517;52.422;10.782;2024-01-30T11:26:00;13.38;;;7.30;;
39846;SDS011;25517;52.422;10.782;2024-01-30T11:28:25;13.25;;;8.13;;
39846;SDS011;25517;52.422;10.782;2024-01-30T11:31:06;11.95;;;7.25;;
39846;SDS011;25517;52.422;10.782;2024-01-30T11:33:32;13.00;;;7.78;;
39846;SDS011;25517;52.422;10.782;2024-01-30T11:35:59;16.15;;;7.93;;
39846;SDS011;25517;52.422;10.782;2024-01-30T11:38:26;11.68;;;7.13;;
39846;SDS011;25517;52.422;10.782;2024-01-30T11:40:53;13.23;;;7.60;;
39846;SDS011;25517;52.422;10.782;2024-01-30T11:43:20;14.70;;;7.63;;
39846;SDS011;25517;52.422;10.782;2024-01-30T11:45:46;14.13;;;7.40;;
39846;SDS011;25517;52.422;10.782;2024-01-30T11:48:12;13.80;;;7.28;;
39846;SDS011;25517;52.422;10.782;2024-01-30T11:50:38;11.13;;;6.93;;
39846;SDS011;25517;52.422;10.782;2024-01-30T11:53:04;9.23;;;6.28;;
39846;SDS011;25517;52.422;10.782;2024-01-30T11:55:30;12.10;;;7.57;;
39846;SDS011;25517;52.422;10.782;2024-01-30T11:57:56;12.27;;;7.30;;
39846;SDS011;25517;52.422;10.782;2024-01-30T12:00:23;11.07;;;7.25;;
39846;SDS011;25517;52.422;10.782;2024-01-30T12:02:49;12.93;;;8.15;;
39846;SDS011;25517;52.422;10.782;2024-01-30T12:05:16;9.90;;;7.22;;
39846;SDS011;25517;52.422;10.782;2024-01-30T12:07:44;11.30;;;7.55;;
39846;SDS011;25517;52.422;10.782;2024-01-30T12:10:10;13.65;;;7.78;;
39846;SDS011;25517;52.422;10.782;2024-01-30T12:12:38;9.15;;;6.85;;
39846;SDS011;25517;52.422;10.782;2024-01-30T12:15:06;17.92;;;7.97;;
39846;SDS011;25517;52.422;10.782;2024-01-30T12:17:33;12.13;;;7.30;;
39846;SDS011;25517;52.422;10.782;2024-01-30T12:20:02;11.17;;;7.77;;
39846;SDS011;25517;52.422;10.782;2024-01-30T12:25:05;14.90;;;8.02;;
39846;SDS011;25517;52.422;10.782;2024-01-30T12:27:34;15.03;;;7.97;;
39846;SDS011;25517;52.422;10.782;2024-01-30T12:30:00;12.90;;;8.23;;
39846;SDS011;25517;52.422;10.782;2024-01-30T12:32:29;10.70;;;7.32;;
39846;SDS011;25517;52.422;10.782;2024-01-30T12:34:55;12.38;;;7.13;;
39846;SDS011;25517;52.422;10.782;2024-01-30T12:37:22;12.88;;;7.80;;
39846;SDS011;25517;52.422;10.782;2024-01-30T12:39:49;11.32;;;7.00;;
39846;SDS011;25517;52.422;10.782;2024-01-30T12:42:16;15.05;;;8.00;;
39846;SDS011;25517;52.422;10.782;2024-01-30T12:44:42;11.85;;;7.45;;
39846;SDS011;25517;52.422;10.782;2024-01-30T12:47:10;16.70;;;8.68;;
39846;SDS011;25517;52.422;10.782;2024-01-30T12:49:36;13.25;;;7.38;;
39846;SDS011;25517;52.422;10.782;2024-01-30T12:52:02;9.93;;;6.50;;
39846;SDS011;25517;52.422;10.782;2024-01-30T12:54:27;14.75;;;8.32;;
39846;SDS011;25517;52.422;10.782;2024-01-30T12:56:53;17.05;;;8.57;;
39846;SDS011;25517;52.422;10.782;2024-01-30T12:59:19;14.40;;;7.10;;
39846;SDS011;25517;52.422;10.782;2024-01-30T13:01:44;10.50;;;6.95;;
39846;SDS011;25517;52.422;10.782;2024-01-30T13:04:10;12.80;;;7.68;;
39846;SDS011;25517;52.422;10.782;2024-01-30T13:06:36;13.85;;;7.70;;
39846;SDS011;25517;52.422;10.782;2024-01-30T13:09:01;13.55;;;7.45;;
39846;SDS011;25517;52.422;10.782;2024-01-30T13:11:27;10.23;;;6.80;;
39846;SDS011;25517;52.422;10.782;2024-01-30T13:13:53;12.60;;;7.00;;
39846;SDS011;25517;52.422;10.782;2024-01-30T13:16:18;12.05;;;6.63;;
39846;SDS011;25517;52.422;10.782;2024-01-30T13:18:44;10.88;;;7.32;;
39846;SDS011;25517;52.422;10.782;2024-01-30T13:21:10;9.55;;;6.10;;
39846;SDS011;25517;52.422;10.782;2024-01-30T13:23:35;12.32;;;8.07;;
39846;SDS011;25517;52.422;10.782;2024-01-30T13:26:01;11.00;;;6.57;;
39846;SDS011;25517;52.422;10.782;2024-01-30T13:28:27;8.73;;;6.25;;
39846;SDS011;25517;52.422;10.782;2024-01-30T13:30:53;9.25;;;6.15;;
39846;SDS011;25517;52.422;10.782;2024-01-30T13:33:18;14.45;;;7.05;;
39846;SDS011;25517;52.422;10.782;2024-01-30T13:35:44;13.35;;;6.43;;
39846;SDS011;25517;52.422;10.782;2024-01-30T13:38:09;8.80;;;6.32;;
39846;SDS011;25517;52.422;10.782;2024-01-30T13:40:35;9.05;;;5.72;;
39846;SDS011;25517;52.422;10.782;2024-01-30T13:43:01;12.85;;;6.03;;
39846;SDS011;25517;52.422;10.782;2024-01-30T13:45:26;13.20;;;6.28;;
39846;SDS011;25517;52.422;10.782;2024-01-30T13:47:52;9.75;;;6.00;;
39846;SDS011;25517;52.422;10.782;2024-01-30T13:50:18;9.38;;;5.95;;
39846;SDS011;25517;52.422;10.782;2024-01-30T13:52:43;11.00;;;6.60;;
39846;SDS011;25517;52.422;10.782;2024-01-30T13:55:09;9.65;;;5.88;;
39846;SDS011;25517;52.422;10.782;2024-01-30T13:57:35;10.65;;;6.35;;
39846;SDS011;25517;52.422;10.782;2024-01-30T14:00:02;9.88;;;6.38;;
39846;SDS011;25517;52.422;10.782;2024-01-30T14:02:31;9.90;;;6.65;;
39846;SDS011;25517;52.422;10.782;2024-01-30T14:04:57;12.95;;;7.15;;
39846;SDS011;25517;52.422;10.782;2024-01-30T14:07:23;12.95;;;8.07;;
39846;SDS011;25517;52.422;10.782;2024-01-30T14:09:49;9.50;;;6.82;;
39846;SDS011;25517;52.422;10.782;2024-01-30T14:12:15;8.98;;;6.97;;
39846;SDS011;25517;52.422;10.782;2024-01-30T14:14:41;11.13;;;7.60;;
39846;SDS011;25517;52.422;10.782;2024-01-30T14:17:06;14.85;;;7.25;;
39846;SDS011;25517;52.422;10.782;2024-01-30T14:19:35;12.35;;;7.15;;